Vicencia, Brazil
Current Conditions -  °F | °C
As of 10:00 PM on Thursday 27 Nov 2014 (Local Time) from SBRF Reporting Station
Scattered Clouds Scattered Clouds  
Wind Chill: 79°   Ceiling: Unl
Heat Index: 82°   Visibility: 6mi
Dew Point: 73°   Wind: 2mph
Humidity: 83%   Direction: 80°E
Pressure: 29.94"   Gusts: NA
Location:  7.66°S, 35.33°W
Report Text: SBRF 280100Z 08002KT 9999 SCT020 26/23 Q1014
Loading
Personal Weather Stations






























Interactive Weather Map New forecast layout! Learn more

10-Day Weather Forecast

Advertisements
Track Severe Weather on mobile